Time;durP1;ratioP1;P1;durP2;ratioP2;P2;SDS_P1;SDS_P2;PMS_P1;PMS_P2;Temp;Humidity;BMP_temperature;BMP_pressure;BME280_temperature;BME280_humidity;BME280_pressure;Samples;Min_cycle;Max_cycle;Signal;HPM_P1;HPM_P2
2022/04/04 00:00:01;;;;;;;8.20;3.70;;;;;;;9.16;61.57;101559.63;7386669;19;20010;-64
2022/04/04 00:02:31;;;;;;;8.18;4.15;;;;;;;9.17;62.77;101555.22;7392404;19;20033;-64
2022/04/04 00:05:05;;;;;;;9.25;4.60;;;;;;;9.17;61.33;101548.19;7388300;19;20018;-64
2022/04/04 00:07:32;;;;;;;8.35;4.45;;;;;;;9.18;61.90;101556.91;7384893;19;20017;-64
2022/04/04 00:09:59;;;;;;;10.07;5.72;;;;;;;9.17;62.66;101549.97;7388969;19;20097;-64
2022/04/04 00:12:28;;;;;;;6.53;3.53;;;;;;;9.18;62.84;101547.22;7389532;19;20164;-64
2022/04/04 00:15:00;;;;;;;8.10;4.07;;;;;;;9.17;62.13;101542.09;7388902;19;20081;-62
2022/04/04 00:17:27;;;;;;;7.00;4.22;;;;;;;9.18;62.84;101534.09;7388147;19;20660;-65
2022/04/04 00:19:54;;;;;;;8.68;4.20;;;;;;;9.18;63.40;101526.22;7388436;19;20134;-63
2022/04/04 00:22:21;;;;;;;8.25;4.32;;;;;;;9.18;62.68;101526.22;7388595;19;20014;-64
2022/04/04 00:24:48;;;;;;;8.23;3.80;;;;;;;9.21;62.73;101510.22;7391589;19;20025;-64
2022/04/04 00:27:14;;;;;;;6.97;3.67;;;;;;;9.18;62.99;101507.00;7386296;19;20019;-64
2022/04/04 00:29:41;;;;;;;8.48;4.93;;;;;;;9.16;63.68;101498.41;7385391;19;20356;-64
2022/04/04 00:32:09;;;;;;;9.82;4.53;;;;;;;9.17;63.59;101494.84;7389691;19;20011;-63
2022/04/04 00:34:37;;;;;;;9.35;3.80;;;;;;;9.15;63.46;101504.63;7386125;19;20041;-65
2022/04/04 00:37:04;;;;;;;8.52;4.55;;;;;;;9.13;63.88;101499.53;7388392;19;20512;-65
2022/04/04 00:39:31;;;;;;;7.07;3.55;;;;;;;9.10;63.96;101494.50;7385551;19;20019;-63
2022/04/04 00:41:58;;;;;;;8.90;4.10;;;;;;;9.10;63.86;101488.44;7387062;19;20448;-63
2022/04/04 00:44:25;;;;;;;8.45;4.00;;;;;;;9.11;64.29;101483.06;7386118;19;20010;-63
2022/04/04 00:46:52;;;;;;;8.15;5.15;;;;;;;9.13;64.59;101472.44;7386914;19;20023;-63
2022/04/04 00:49:19;;;;;;;6.47;3.63;;;;;;;9.14;64.06;101466.22;7387770;19;20020;-65
2022/04/04 00:51:48;;;;;;;5.47;3.65;;;;;;;9.09;63.84;101461.38;7389823;19;20019;-64
2022/04/04 00:54:15;;;;;;;7.32;3.78;;;;;;;9.08;64.66;101459.69;7386676;19;20366;-65
2022/04/04 00:56:42;;;;;;;9.88;4.45;;;;;;;9.06;64.27;101463.41;7387176;19;20021;-64
2022/04/04 00:59:13;;;;;;;8.18;3.50;;;;;;;9.05;64.53;101461.72;7390278;19;20330;-65
2022/04/04 01:01:41;;;;;;;7.38;3.42;;;;;;;9.02;64.39;101450.53;7388280;19;20007;-64
2022/04/04 01:04:11;;;;;;;6.32;3.30;;;;;;;9.01;64.76;101451.50;7385393;19;20722;-65
2022/04/04 01:06:41;;;;;;;7.82;3.20;;;;;;;9.05;65.37;101444.19;7384006;19;20089;-64
2022/04/04 01:09:13;;;;;;;7.60;3.30;;;;;;;9.05;64.72;101436.31;7385826;19;20014;-65
2022/04/04 01:12:09;;;;;;;8.23;4.68;;;;;;;9.03;64.43;101427.75;7388889;19;20040;-65
2022/04/04 01:14:39;;;;;;;6.93;3.17;;;;;;;8.96;63.75;101432.66;7384167;19;20610;-64
2022/04/04 01:17:08;;;;;;;6.13;2.97;;;;;;;8.94;64.14;101424.09;7385797;19;20586;-64
2022/04/04 01:19:36;;;;;;;7.85;4.80;;;;;;;8.96;65.73;101426.59;7389579;19;20526;-63
2022/04/04 01:22:08;;;;;;;6.55;4.20;;;;;;;8.98;65.36;101415.03;7384197;19;20352;-63
2022/04/04 01:24:39;;;;;;;8.40;3.30;;;;;;;9.01;64.72;101406.03;7387152;19;20022;-63
2022/04/04 01:27:09;;;;;;;5.85;2.80;;;;;;;9.02;64.81;101408.53;7384463;19;20019;-65
2022/04/04 01:29:38;;;;;;;6.78;3.20;;;;;;;9.05;65.64;101398.72;7385850;19;20011;-66
2022/04/04 01:32:06;;;;;;;6.20;2.90;;;;;;;9.02;64.75;101391.97;7385766;19;20309;-62
2022/04/04 01:34:34;;;;;;;5.80;2.58;;;;;;;8.99;64.74;101390.41;7386338;19;20328;-63
2022/04/04 01:37:01;;;;;;;7.38;3.72;;;;;;;9.00;65.48;101386.84;7390370;19;20013;-65
2022/04/04 01:39:27;;;;;;;7.07;3.38;;;;;;;9.01;65.24;101383.25;7385837;19;20014;-64
2022/04/04 01:41:54;;;;;;;4.90;2.65;;;;;;;9.01;65.18;101377.16;7383600;19;20023;-65
2022/04/04 01:44:21;;;;;;;9.85;6.47;;;;;;;9.00;65.43;101365.00;7386373;19;20528;-65
2022/04/04 01:46:48;;;;;;;6.45;3.38;;;;;;;8.98;66.87;101367.78;7385872;19;20011;-65
2022/04/04 01:49:26;;;;;;;6.82;2.72;;;;;;;8.99;66.27;101366.78;7384714;19;20025;-64
2022/04/04 01:52:05;;;;;;;5.10;3.00;;;;;;;8.95;65.55;101349.66;7384978;19;20010;-64
2022/04/04 01:54:32;;;;;;;6.82;3.60;;;;;;;8.96;66.44;101364.44;7383778;19;20385;-63
2022/04/04 01:56:59;;;;;;;5.65;2.45;;;;;;;8.93;65.76;101354.22;7383933;19;20510;-65
2022/04/04 01:59:26;;;;;;;6.70;2.47;;;;;;;8.94;66.80;101347.16;7383256;19;20666;-64
2022/04/04 02:01:53;;;;;;;6.57;4.25;;;;;;;8.96;67.52;101340.81;7388250;19;20018;-64
2022/04/04 02:04:20;;;;;;;6.10;3.42;;;;;;;8.96;67.30;101334.72;7384787;19;20014;-65
2022/04/04 02:06:47;;;;;;;4.38;2.65;;;;;;;8.93;67.62;101333.22;7384657;19;20030;-64
2022/04/04 02:09:14;;;;;;;6.25;2.78;;;;;;;8.91;66.92;101324.63;7383921;19;20006;-63
2022/04/04 02:11:42;;;;;;;6.05;2.55;;;;;;;8.85;67.18;101316.44;7384989;19;20586;-64
2022/04/04 02:14:09;;;;;;;6.50;3.25;;;;;;;8.80;67.82;101311.59;7383973;19;20035;-64
2022/04/04 02:16:36;;;;;;;7.25;3.55;;;;;;;8.79;67.74;101309.91;7383476;19;20025;-65
2022/04/04 02:19:02;;;;;;;8.15;3.20;;;;;;;8.77;67.83;101303.16;7386542;19;20019;-64
2022/04/04 02:21:29;;;;;;;8.25;3.15;;;;;;;8.79;67.70;101303.81;7382910;19;20009;-64
2022/04/04 02:23:56;;;;;;;7.07;3.15;;;;;;;8.78;67.72;101291.69;7387768;19;20518;-64
2022/04/04 02:26:23;;;;;;;8.15;3.38;;;;;;;8.77;68.36;101285.63;7382577;19;20015;-65
2022/04/04 02:28:50;;;;;;;5.47;2.53;;;;;;;8.76;67.50;101283.94;7386434;19;20641;-63
2022/04/04 02:31:17;;;;;;;9.20;3.95;;;;;;;8.75;67.95;101278.81;7387995;19;20095;-65
2022/04/04 02:33:44;;;;;;;9.98;4.55;;;;;;;8.79;68.26;101267.94;7385168;19;20035;-63
2022/04/04 02:36:12;;;;;;;6.90;3.20;;;;;;;8.86;68.18;101258.59;7384030;19;20010;-64
2022/04/04 02:38:39;;;;;;;9.05;4.18;;;;;;;8.89;69.00;101258.31;7384979;19;20306;-63
2022/04/04 02:41:06;;;;;;;7.75;3.72;;;;;;;8.92;69.09;101257.25;7386628;19;20341;-65
2022/04/04 02:43:33;;;;;;;8.52;3.28;;;;;;;8.95;67.78;101259.59;7389230;19;20015;-64
2022/04/04 02:46:01;;;;;;;5.07;3.08;;;;;;;8.95;67.78;101249.94;7383694;19;20014;-63
2022/04/04 02:48:28;;;;;;;10.70;3.65;;;;;;;8.96;67.92;101243.72;7385629;19;20367;-62
2022/04/04 02:50:55;;;;;;;4.70;2.30;;;;;;;8.97;67.37;101237.50;7383729;19;20019;-63
2022/04/04 02:53:21;;;;;;;5.18;2.92;;;;;;;8.95;67.17;101244.69;7385174;19;20028;-66
2022/04/04 02:58:35;;;;;;;6.30;2.55;;;;;;;8.90;67.32;101227.66;7384759;19;20063;-64
2022/04/04 03:01:03;;;;;;;5.93;2.10;;;;;;;8.91;67.25;101217.03;7386048;19;20027;-64
2022/04/04 03:03:30;;;;;;;7.72;2.50;;;;;;;8.94;67.50;101213.31;7384439;19;20069;-65
2022/04/04 03:05:57;;;;;;;8.13;3.30;;;;;;;8.94;67.96;101208.91;7387205;19;20090;-64
2022/04/04 03:08:24;;;;;;;4.30;1.95;;;;;;;8.97;68.24;101206.03;7379249;19;20003;-65
2022/04/04 03:10:52;;;;;;;5.95;2.28;;;;;;;8.97;66.75;101199.94;7384023;19;20554;-65
2022/04/04 03:13:19;;;;;;;5.68;3.20;;;;;;;9.01;68.05;101196.91;7383533;19;20010;-64
2022/04/04 03:15:46;;;;;;;6.55;2.25;;;;;;;9.03;67.30;101191.53;7380637;19;20015;-64
2022/04/04 03:18:13;;;;;;;6.88;2.15;;;;;;;9.06;67.11;101183.38;7383314;19;20403;-63
2022/04/04 03:20:40;;;;;;;5.05;1.80;;;;;;;9.07;66.90;101178.97;7380875;19;20098;-65
2022/04/04 03:23:07;;;;;;;6.18;2.50;;;;;;;9.06;66.71;101178.13;7381143;19;20011;-62
2022/04/04 03:25:34;;;;;;;3.15;1.60;;;;;;;9.08;66.65;101170.13;7383037;19;20540;-64
2022/04/04 03:28:01;;;;;;;4.20;1.98;;;;;;;9.08;66.67;101170.97;7381500;19;20438;-64
2022/04/04 03:30:29;;;;;;;4.00;1.98;;;;;;;9.04;66.93;101166.13;7382304;19;20018;-66
2022/04/04 03:32:57;;;;;;;4.28;1.60;;;;;;;9.02;67.86;101167.09;7387265;19;20408;-64
2022/04/04 03:35:30;;;;;;;4.28;1.98;;;;;;;9.03;68.94;101162.69;7392555;19;20216;-63
2022/04/04 03:37:59;;;;;;;5.22;2.63;;;;;;;9.06;69.56;101156.31;7394630;19;20014;-64
2022/04/04 03:40:27;;;;;;;5.97;2.45;;;;;;;9.06;69.75;101153.69;7387698;19;20094;-64
2022/04/04 03:42:55;;;;;;;4.00;1.80;;;;;;;9.06;70.21;101145.81;7386266;19;20033;-64
2022/04/04 03:45:24;;;;;;;6.05;2.13;;;;;;;9.05;70.94;101133.66;7387307;19;20026;-63
2022/04/04 03:47:51;;;;;;;7.13;2.17;;;;;;;9.06;72.56;101120.41;7390844;19;20025;-63
2022/04/04 03:50:18;;;;;;;5.60;2.30;;;;;;;9.11;74.19;101118.19;7391990;19;20018;-64
2022/04/04 03:52:47;;;;;;;9.43;3.33;;;;;;;9.13;74.42;101112.81;7390893;19;20014;-64
2022/04/04 03:55:16;;;;;;;9.50;2.85;;;;;;;9.17;75.71;101103.69;7389275;19;20490;-65
2022/04/04 03:57:44;;;;;;;5.63;1.70;;;;;;;9.09;74.33;101101.78;7388529;19;20054;-64
2022/04/04 04:00:12;;;;;;;2.92;1.67;;;;;;;8.93;74.25;101085.72;7390646;19;20027;-65
2022/04/04 04:02:39;;;;;;;4.30;2.20;;;;;;;8.85;74.88;101091.63;7386636;19;20488;-63
2022/04/04 04:05:12;;;;;;;5.38;3.47;;;;;;;8.79;75.29;101080.84;7388484;19;20444;-62
2022/04/04 04:07:39;;;;;;;6.40;3.00;;;;;;;8.78;76.07;101085.28;7387419;19;20373;-64
2022/04/04 04:10:06;;;;;;;5.15;1.67;;;;;;;8.80;77.32;101069.38;7388698;19;20336;-65
2022/04/04 04:12:33;;;;;;;7.70;2.25;;;;;;;8.77;76.55;101067.03;7390661;19;20082;-63
2022/04/04 04:15:00;;;;;;;6.60;2.13;;;;;;;8.71;76.18;101064.97;7388403;19;20016;-62
2022/04/04 04:17:27;;;;;;;5.65;1.60;;;;;;;8.66;76.15;101054.88;7387640;19;20089;-63
2022/04/04 04:22:39;;;;;;;3.85;2.08;;;;;;;8.58;76.62;101050.28;7387594;19;20007;-64
2022/04/04 04:25:07;;;;;;;5.65;1.85;;;;;;;8.57;76.87;101048.66;7389886;19;20115;-63
2022/04/04 04:27:35;;;;;;;6.18;1.70;;;;;;;8.53;76.59;101047.22;7387058;19;20114;-63
2022/04/04 04:30:03;;;;;;;10.32;2.13;;;;;;;8.57;76.71;101040.78;7388624;19;20021;-64
2022/04/04 04:32:30;;;;;;;5.28;1.50;;;;;;;8.56;76.45;101039.13;7387826;19;20017;-64
2022/04/04 04:34:57;;;;;;;7.78;1.75;;;;;;;8.56;77.42;101033.03;7386613;19;20202;-64
2022/04/04 04:37:25;;;;;;;3.58;1.58;;;;;;;8.54;77.01;101021.84;7388903;19;20070;-64
2022/04/04 04:39:52;;;;;;;5.15;1.77;;;;;;;8.52;77.00;101014.13;7390860;19;20447;-64
2022/04/04 04:42:19;;;;;;;3.30;1.30;;;;;;;8.53;77.86;101017.59;7389652;19;20016;-64
2022/04/04 04:44:46;;;;;;;5.20;2.05;;;;;;;8.49;78.32;101000.44;7384827;19;20519;-64
2022/04/04 04:47:15;;;;;;;5.40;2.15;;;;;;;8.49;78.38;101003.91;7387661;19;20017;-64
2022/04/04 04:49:42;;;;;;;3.60;1.95;;;;;;;8.43;78.53;101001.00;7389857;19;20018;-64
2022/04/04 04:52:09;;;;;;;3.20;1.48;;;;;;;8.42;79.09;100999.34;7387826;19;20015;-64
2022/04/04 04:54:36;;;;;;;4.57;1.98;;;;;;;8.43;79.74;101001.81;7386139;19;20064;-64
2022/04/04 04:57:03;;;;;;;6.72;1.80;;;;;;;8.50;80.83;100997.69;7388464;19;20449;-64
2022/04/04 04:59:30;;;;;;;3.75;1.80;;;;;;;8.56;81.40;100997.16;7386248;19;20658;-64
2022/04/04 05:01:57;;;;;;;7.05;2.25;;;;;;;8.61;81.17;100991.50;7387302;19;20178;-64
2022/04/04 05:04:24;;;;;;;6.97;2.10;;;;;;;8.64;81.16;100996.47;7385715;19;20040;-64
2022/04/04 05:06:51;;;;;;;8.70;3.33;;;;;;;8.59;81.18;100990.81;7386566;19;20020;-64
2022/04/04 05:09:22;;;;;;;7.53;2.63;;;;;;;8.52;81.87;100976.59;7389626;19;20320;-63
2022/04/04 05:11:49;;;;;;;6.03;3.25;;;;;;;8.47;82.54;100974.38;7390443;19;20494;-64
2022/04/04 05:14:16;;;;;;;5.03;2.45;;;;;;;8.44;82.41;100973.81;7385411;19;20018;-64
2022/04/04 05:16:44;;;;;;;6.47;2.42;;;;;;;8.41;82.83;100972.28;7385730;19;20014;-64
2022/04/04 05:19:17;;;;;;;8.23;2.90;;;;;;;8.40;83.04;100969.78;7390607;19;20015;-64
2022/04/04 05:21:56;;;;;;;5.43;2.42;;;;;;;8.39;83.17;100960.28;7387580;19;20014;-64
2022/04/04 05:24:24;;;;;;;3.85;2.28;;;;;;;8.36;83.76;100964.00;7384556;19;20303;-64
2022/04/04 05:26:51;;;;;;;5.88;2.90;;;;;;;8.40;84.28;100964.56;7385968;19;20481;-64
2022/04/04 05:29:26;;;;;;;5.07;2.47;;;;;;;8.39;83.69;100957.66;7386090;19;20013;-63
2022/04/04 05:31:57;;;;;;;16.60;4.47;;;;;;;8.40;84.04;100957.53;7385130;19;20058;-64
2022/04/04 05:34:27;;;;;;;5.47;2.80;;;;;;;8.41;84.74;100964.44;7384841;19;20549;-63
2022/04/04 05:36:58;;;;;;;8.82;4.05;;;;;;;8.37;84.34;100951.72;7383817;19;20122;-64
2022/04/04 05:39:24;;;;;;;8.05;3.88;;;;;;;8.36;85.04;100955.31;7389641;19;20018;-64
2022/04/04 05:41:52;;;;;;;5.68;3.13;;;;;;;8.37;85.01;100954.34;7386978;19;20035;-65
2022/04/04 05:44:19;;;;;;;8.63;3.70;;;;;;;8.34;85.23;100949.38;7388577;19;20506;-65
2022/04/04 05:46:47;;;;;;;28.35;5.93;;;;;;;8.37;86.06;100955.19;7385334;19;20449;-63
2022/04/04 05:49:22;;;;;;;10.00;4.35;;;;;;;8.40;86.01;100952.28;7385103;19;20504;-64
2022/04/04 05:51:48;;;;;;;6.20;2.72;;;;;;;8.37;85.67;100952.56;7386914;19;20011;-64
2022/04/04 05:54:31;;;;;;;5.20;2.78;;;;;;;8.34;85.59;100944.13;7388227;19;20021;-65
2022/04/04 05:56:58;;;;;;;6.13;2.88;;;;;;;8.32;85.97;100939.03;7386264;19;20458;-63
2022/04/04 05:59:25;;;;;;;9.82;3.72;;;;;;;8.30;85.55;100934.88;7386259;19;20014;-63
2022/04/04 06:01:52;;;;;;;8.48;3.83;;;;;;;8.30;86.01;100932.25;7383478;19;20780;-65
2022/04/04 06:04:20;;;;;;;6.32;3.92;;;;;;;8.30;85.63;100937.50;7385891;19;20021;-64
2022/04/04 06:06:47;;;;;;;9.15;4.30;;;;;;;8.34;86.36;100933.63;7383896;19;20019;-64
2022/04/04 06:09:22;;;;;;;6.97;4.03;;;;;;;8.32;85.94;100935.59;7384084;19;20010;-64
2022/04/04 06:11:48;;;;;;;4.50;2.22;;;;;;;8.33;86.44;100937.25;7384400;19;20102;-64
2022/04/04 06:14:15;;;;;;;7.28;2.70;;;;;;;8.33;86.28;100924.94;7383191;19;20013;-63
2022/04/04 06:16:42;;;;;;;6.95;3.00;;;;;;;8.33;86.18;100926.75;7389508;19;20045;-64
2022/04/04 06:19:22;;;;;;;9.00;2.70;;;;;;;8.37;86.32;100917.66;7385385;19;20163;-64
2022/04/04 06:21:49;;;;;;;4.70;2.03;;;;;;;8.31;86.13;100920.81;7387445;19;20279;-64
2022/04/04 06:24:16;;;;;;;7.70;3.10;;;;;;;8.35;86.46;100911.69;7384113;19;20010;-64
2022/04/04 06:26:43;;;;;;;6.30;2.53;;;;;;;8.40;87.13;100907.72;7385090;19;20472;-63
2022/04/04 06:29:22;;;;;;;5.80;2.35;;;;;;;8.44;87.34;100908.25;7382453;19;20396;-62
2022/04/04 06:31:51;;;;;;;6.20;2.30;;;;;;;8.48;86.75;100907.84;7388329;19;20010;-64
2022/04/04 06:34:19;;;;;;;6.93;3.25;;;;;;;8.51;87.28;100904.97;7384240;19;20040;-64
2022/04/04 06:36:46;;;;;;;4.35;2.78;;;;;;;8.52;86.86;100898.75;7387921;19;20023;-65
2022/04/04 06:39:19;;;;;;;6.70;2.30;;;;;;;8.53;86.75;100904.84;7386824;19;20188;-65
2022/04/04 06:41:50;;;;;;;5.15;2.65;;;;;;;8.48;86.97;100892.09;7382964;19;20019;-64
2022/04/04 06:44:18;;;;;;;8.02;2.58;;;;;;;8.48;87.09;100883.44;7383169;19;20015;-65
2022/04/04 06:46:50;;;;;;;7.55;2.75;;;;;;;8.48;87.53;100888.69;7384928;19;20332;-65
2022/04/04 06:49:22;;;;;;;5.78;2.35;;;;;;;8.45;87.41;100889.78;7385505;19;20535;-64
2022/04/04 06:51:51;;;;;;;50.38;7.07;;;;;;;8.47;87.93;100876.53;7387101;19;20457;-64
2022/04/04 06:54:19;;;;;;;8.43;3.22;;;;;;;8.48;87.94;100876.38;7381456;19;20017;-65
2022/04/04 06:56:47;;;;;;;10.38;3.67;;;;;;;8.54;88.73;100870.59;7382649;19;20640;-65
2022/04/04 06:59:21;;;;;;;11.40;5.15;;;;;;;8.64;89.14;100872.38;7383695;19;20018;-64
2022/04/04 07:01:50;;;;;;;7.28;2.83;;;;;;;8.66;88.24;100871.28;7381585;19;20105;-64
2022/04/04 07:04:17;;;;;;;8.20;3.03;;;;;;;8.69;88.28;100878.03;7380304;19;20010;-63
2022/04/04 07:06:44;;;;;;;42.63;6.22;;;;;;;8.73;88.76;100875.00;7383210;19;20022;-64
2022/04/04 07:09:13;;;;;;;11.65;4.30;;;;;;;8.78;88.59;100858.84;7389795;19;20086;-63
2022/04/04 07:11:50;;;;;;;10.65;3.72;;;;;;;8.75;88.09;100856.50;7392169;19;20642;-63
2022/04/04 07:14:18;;;;;;;6.95;2.40;;;;;;;8.79;88.21;100865.72;7391743;19;20555;-64
2022/04/04 07:16:45;;;;;;;7.57;3.67;;;;;;;8.79;88.53;100858.69;7392325;19;20090;-64
2022/04/04 07:19:16;;;;;;;6.50;3.08;;;;;;;8.82;88.56;100849.72;7390387;19;20006;-64
2022/04/04 07:21:50;;;;;;;5.10;2.60;;;;;;;8.82;88.67;100842.69;7387611;19;20011;-65
2022/04/04 07:24:27;;;;;;;6.35;2.30;;;;;;;8.84;88.28;100834.66;7392430;19;20029;-63
2022/04/04 07:26:54;;;;;;;7.60;2.90;;;;;;;8.81;87.94;100845.44;7392366;19;20018;-63
2022/04/04 07:29:22;;;;;;;4.18;2.17;;;;;;;8.77;88.24;100838.81;7388611;19;20032;-64
2022/04/04 07:31:49;;;;;;;4.75;2.13;;;;;;;8.76;87.99;100835.38;7391521;19;20102;-63
2022/04/04 07:34:16;;;;;;;4.95;2.13;;;;;;;8.78;89.01;100825.59;7387980;19;20492;-63
2022/04/04 07:36:43;;;;;;;3.97;1.60;;;;;;;8.82;89.19;100826.94;7388618;19;20014;-63
2022/04/04 07:39:13;;;;;;;5.95;2.58;;;;;;;8.84;89.14;100824.16;7392518;19;20015;-63
2022/04/04 07:41:47;;;;;;;4.10;2.15;;;;;;;8.82;88.88;100829.56;7389118;19;20080;-64
2022/04/04 07:44:14;;;;;;;7.18;1.77;;;;;;;8.78;88.79;100827.38;7389444;19;20028;-63
2022/04/04 07:46:41;;;;;;;8.10;3.60;;;;;;;8.80;89.20;100828.03;7388229;19;20070;-64
2022/04/04 07:49:08;;;;;;;5.72;1.75;;;;;;;8.83;89.85;100825.16;7389236;19;20082;-65
2022/04/04 07:51:35;;;;;;;6.45;1.60;;;;;;;8.88;89.23;100818.50;7393478;19;20010;-65
2022/04/04 07:54:02;;;;;;;4.43;1.45;;;;;;;8.91;88.78;100820.84;7390692;19;20098;-64
2022/04/04 07:56:29;;;;;;;8.50;3.33;;;;;;;8.95;89.59;100816.13;7389051;19;20010;-64
2022/04/04 07:58:56;;;;;;;5.20;1.73;;;;;;;9.02;89.99;100806.72;7390122;19;20150;-67
2022/04/04 08:01:23;;;;;;;3.97;2.10;;;;;;;9.08;89.88;100800.91;7391729;19;20320;-64
2022/04/04 08:03:52;;;;;;;71.07;7.35;;;;;;;9.12;90.69;100793.56;7390471;19;20015;-65
2022/04/04 08:06:19;;;;;;;45.90;6.97;;;;;;;9.10;90.58;100787.63;7388127;19;20011;-66
2022/04/04 08:08:46;;;;;;;23.85;5.38;;;;;;;9.11;91.10;100792.75;7389099;19;20010;-65
2022/04/04 08:11:13;;;;;;;7.05;2.35;;;;;;;9.16;90.66;100794.94;7388181;19;20330;-64
2022/04/04 08:13:44;;;;;;;4.70;2.00;;;;;;;9.16;90.91;100787.88;7388028;19;20075;-64
2022/04/04 08:16:11;;;;;;;5.03;1.67;;;;;;;9.20;91.00;100785.78;7392274;19;20010;-65
2022/04/04 08:18:38;;;;;;;9.40;2.40;;;;;;;9.24;90.62;100779.28;7386883;19;20300;-64
2022/04/04 08:21:05;;;;;;;5.00;1.80;;;;;;;9.22;90.55;100783.84;7392931;19;20029;-64
2022/04/04 08:23:32;;;;;;;4.78;2.60;;;;;;;9.25;90.55;100786.19;7390218;19;20336;-64
2022/04/04 08:25:59;;;;;;;5.70;1.77;;;;;;;9.29;90.69;100777.91;7386120;19;20026;-64
2022/04/04 08:28:28;;;;;;;4.95;1.60;;;;;;;9.32;90.81;100774.13;7387026;19;20752;-63
2022/04/04 08:30:56;;;;;;;5.22;1.77;;;;;;;9.38;90.97;100774.38;7389180;19;20035;-64
2022/04/04 08:33:24;;;;;;;4.70;1.83;;;;;;;9.37;90.30;100769.28;7388477;19;20468;-65
2022/04/04 08:35:53;;;;;;;6.63;2.55;;;;;;;9.35;90.11;100771.19;7388771;19;20035;-64
2022/04/04 08:38:20;;;;;;;4.65;1.70;;;;;;;9.39;90.54;100762.91;7385929;19;20010;-64
2022/04/04 08:40:50;;;;;;;3.45;1.65;;;;;;;9.41;90.81;100773.25;7388271;19;20019;-64
2022/04/04 08:43:18;;;;;;;57.15;7.30;;;;;;;9.43;90.93;100768.69;7388261;19;20095;-65
2022/04/04 08:45:48;;;;;;;3.42;1.48;;;;;;;9.42;90.70;100764.41;7387228;19;20559;-64
2022/04/04 08:48:16;;;;;;;4.55;1.60;;;;;;;9.44;91.00;100759.84;7387816;19;20024;-64
2022/04/04 08:50:44;;;;;;;2.67;1.17;;;;;;;9.41;90.78;100762.75;7389707;19;20010;-64
2022/04/04 08:53:11;;;;;;;3.00;1.40;;;;;;;9.47;91.32;100763.97;7386131;19;20687;-65
2022/04/04 08:55:38;;;;;;;14.13;2.97;;;;;;;9.50;91.25;100761.84;7385053;19;20386;-64
2022/04/04 08:58:05;;;;;;;2.67;1.45;;;;;;;9.54;91.26;100757.16;7385834;19;20021;-65
2022/04/04 09:00:33;;;;;;;2.70;1.02;;;;;;;9.55;91.01;100756.97;7384499;19;20021;-63
2022/04/04 09:03:05;;;;;;;7.65;3.33;;;;;;;9.59;91.44;100755.75;7384992;19;20535;-64
2022/04/04 09:05:50;;;;;;;2.30;1.17;;;;;;;9.64;91.76;100750.03;7384405;19;20110;-64
2022/04/04 09:08:23;;;;;;;2.05;0.85;;;;;;;9.63;91.26;100738.69;7385208;19;20130;-64
2022/04/04 09:10:54;;;;;;;25.88;5.55;;;;;;;9.70;92.02;100731.84;7381874;19;20021;-64
2022/04/04 09:13:30;;;;;;;12.77;3.28;;;;;;;9.84;92.81;100728.72;7383297;19;20082;-64
2022/04/04 09:16:06;;;;;;;3.03;1.65;;;;;;;9.88;91.85;100718.75;7384652;19;20015;-64
2022/04/04 09:18:46;;;;;;;3.65;1.52;;;;;;;9.92;91.53;100729.75;7385065;19;20436;-64
2022/04/04 09:21:27;;;;;;;7.18;3.33;;;;;;;9.94;91.33;100728.66;7383466;19;20021;-64
2022/04/04 09:23:56;;;;;;;21.75;4.65;;;;;;;10.00;91.85;100730.69;7383884;19;20190;-63
2022/04/04 09:26:45;;;;;;;46.67;5.18;;;;;;;10.05;92.07;100722.34;7383573;19;20018;-64
2022/04/04 09:29:24;;;;;;;3.22;1.55;;;;;;;10.08;91.84;100722.84;7382512;19;20612;-63
2022/04/04 09:32:05;;;;;;;9.18;5.00;;;;;;;10.16;91.89;100717.69;7381436;19;20021;-63
2022/04/04 09:34:52;;;;;;;4.55;1.23;;;;;;;10.22;92.04;100719.69;7384973;19;20014;-64
2022/04/04 09:37:21;;;;;;;4.53;2.00;;;;;;;10.27;91.80;100727.13;7382539;19;20022;-64
2022/04/04 09:40:03;;;;;;;12.35;4.25;;;;;;;10.29;91.65;100723.38;7387394;19;20102;-63
2022/04/04 09:42:40;;;;;;;2.72;0.90;;;;;;;10.27;91.07;100722.69;7383660;19;20025;-63
2022/04/04 09:45:11;;;;;;;2.92;1.02;;;;;;;10.22;90.79;100717.06;7386413;19;20588;-64
2022/04/04 09:47:50;;;;;;;9.68;2.25;;;;;;;10.23;91.10;100715.25;7386760;19;20015;-63
2022/04/04 09:50:36;;;;;;;14.30;3.90;;;;;;;10.23;91.71;100718.72;7381669;19;20019;-68
2022/04/04 09:53:11;;;;;;;6.78;3.17;;;;;;;10.31;92.06;100710.06;7386038;19;20023;-64
2022/04/04 09:55:45;;;;;;;8.43;4.07;;;;;;;10.36;92.67;100722.78;7384563;19;20114;-63
2022/04/04 09:58:15;;;;;;;5.43;2.65;;;;;;;10.42;92.78;100711.59;7383371;19;20013;-64
2022/04/04 10:00:44;;;;;;;5.22;1.60;;;;;;;10.48;92.21;100708.38;7381885;19;20007;-65
2022/04/04 10:03:12;;;;;;;3.85;1.83;;;;;;;10.55;92.21;100712.88;7382767;19;20010;-65
2022/04/04 10:05:44;;;;;;;3.47;1.13;;;;;;;10.59;91.79;100701.03;7382379;19;20038;-64
2022/04/04 10:08:17;;;;;;;53.33;5.82;;;;;;;10.61;91.47;100690.38;7384517;19;20025;-64
2022/04/04 10:10:44;;;;;;;29.98;7.00;;;;;;;10.66;91.73;100694.19;7383057;19;20498;-63
2022/04/04 10:13:16;;;;;;;6.15;2.65;;;;;;;10.73;92.02;100694.38;7381781;19;20017;-63
2022/04/04 10:15:44;;;;;;;17.10;11.02;;;;;;;10.81;92.16;100693.59;7381953;19;20226;-62
2022/04/04 10:18:11;;;;;;;2.85;1.30;;;;;;;10.86;92.06;100692.13;7381091;19;20050;-64
2022/04/04 10:20:38;;;;;;;4.70;1.40;;;;;;;10.92;91.80;100685.41;7382236;19;20021;-65
2022/04/04 10:23:09;;;;;;;4.38;1.10;;;;;;;10.93;91.23;100687.03;7383458;19;20082;-63
2022/04/04 10:25:37;;;;;;;85.82;8.98;;;;;;;11.01;91.69;100676.56;7381325;19;20674;-64
2022/04/04 10:28:25;;;;;;;6.28;3.30;;;;;;;11.07;92.31;100681.19;7384002;19;20109;-63
2022/04/04 10:30:52;;;;;;;7.55;2.58;;;;;;;11.10;92.00;100678.22;7384684;19;20017;-63
2022/04/04 10:33:23;;;;;;;5.97;3.15;;;;;;;11.14;91.86;100676.91;7380721;19;20507;-65
2022/04/04 10:36:06;;;;;;;20.38;4.53;;;;;;;11.20;91.95;100676.28;7384384;19;20092;-64
2022/04/04 10:38:34;;;;;;;;;;;;;;;11.25;92.02;100667.91;7385090;19;20009;-63
2022/04/04 10:41:09;;;;;;;5.75;2.00;;;;;;;11.28;91.77;100668.41;7383385;19;19919;-63
2022/04/04 10:43:42;;;;;;;8.13;3.28;;;;;;;11.37;92.12;100671.88;7392400;19;20013;-64
2022/04/04 10:46:12;;;;;;;20.13;4.97;;;;;;;11.46;91.93;100657.75;7371228;19;20071;-63
2022/04/04 10:48:42;;;;;;;2.72;1.50;;;;;;;11.46;91.73;100655.94;7380282;19;20014;-65
2022/04/04 10:51:25;;;;;;;5.72;2.42;;;;;;;11.46;91.19;100655.94;7387825;19;20499;-63
2022/04/04 10:54:10;;;;;;;6.00;2.42;;;;;;;11.55;91.46;100648.84;7386908;19;20080;-64
2022/04/04 10:56:41;;;;;;;4.28;1.55;;;;;;;11.62;91.90;100652.50;7385943;19;20047;-63
2022/04/04 10:59:23;;;;;;;3.47;1.20;;;;;;;11.64;91.30;100644.41;7388281;19;20007;-64
2022/04/04 11:02:02;;;;;;;4.85;2.75;;;;;;;11.68;91.31;100654.47;7388742;19;20215;-62
2022/04/04 11:04:29;;;;;;;6.68;4.28;;;;;;;11.70;91.46;100649.03;7390786;19;20273;-63
2022/04/04 11:09:57;;;;;;;8.05;3.35;;;;;;;11.87;91.57;100640.16;7386603;19;20441;-65
2022/04/04 11:12:28;;;;;;;10.40;5.40;;;;;;;11.92;91.13;100640.50;7388771;19;20018;-64
2022/04/04 11:15:07;;;;;;;5.28;2.65;;;;;;;11.93;91.08;100639.50;7390318;19;20309;-63
2022/04/04 11:18:00;;;;;;;5.15;2.63;;;;;;;11.99;90.97;100617.72;7388385;19;20074;-64
2022/04/04 11:20:33;;;;;;;8.05;3.60;;;;;;;12.07;90.64;100616.91;7387171;19;20010;-64
2022/04/04 11:23:08;;;;;;;4.43;2.28;;;;;;;12.13;90.92;100614.44;7389371;19;20010;-64
2022/04/04 11:25:38;;;;;;;6.72;2.92;;;;;;;12.21;90.70;100614.41;7389975;19;20829;-64
2022/04/04 11:28:06;;;;;;;5.55;2.40;;;;;;;12.26;90.78;100608.59;7387417;19;20520;-64
2022/04/04 11:30:37;;;;;;;6.07;2.40;;;;;;;12.30;90.42;100605.47;7386648;19;20010;-65
2022/04/04 11:33:12;;;;;;;7.45;3.60;;;;;;;12.39;90.36;100599.16;7388434;19;20024;-63
2022/04/04 11:35:39;;;;;;;6.05;2.53;;;;;;;12.44;90.12;100591.56;7389189;19;20093;-63
2022/04/04 11:38:11;;;;;;;3.25;1.73;;;;;;;12.51;89.93;100594.34;7388740;19;20014;-64
2022/04/04 11:40:45;;;;;;;2.85;1.70;;;;;;;12.55;89.53;100602.72;7389198;19;20060;-64
2022/04/04 11:43:14;;;;;;;3.63;2.20;;;;;;;12.55;89.07;100598.28;7385415;19;20014;-65
2022/04/04 11:45:43;;;;;;;5.25;2.60;;;;;;;12.58;89.80;100602.41;7389173;19;20006;-64
2022/04/04 11:48:17;;;;;;;3.80;1.67;;;;;;;12.63;89.41;100595.63;7384156;19;20039;-66
2022/04/04 11:50:45;;;;;;;8.00;4.50;;;;;;;12.70;89.18;100598.38;7386218;19;20010;-64